Time;durP1;ratioP1;P1;durP2;ratioP2;P2;SDS_P1;SDS_P2;PMS_P1;PMS_P2;Temp;Humidity;BMP_temperature;BMP_pressure;BME280_temperature;BME280_humidity;BME280_pressure;Samples;Min_cycle;Max_cycle;Signal;HPM_P1;HPM_P2
2022/04/04 00:01:12;;;;;;;11.27;10.03;;;2.70;99.90;;;;;;2609610;54;20154;-77
2022/04/04 00:03:38;;;;;;;10.60;9.60;;;2.70;99.90;;;;;;2609496;39;20543;-76
2022/04/04 00:06:04;;;;;;;14.10;10.03;;;2.70;99.90;;;;;;2609412;54;20262;-77
2022/04/04 00:08:33;;;;;;;10.73;9.47;;;2.60;99.90;;;;;;2610135;54;20861;-77
2022/04/04 00:10:59;;;;;;;12.10;10.20;;;2.60;99.90;;;;;;2609940;54;20423;-78
2022/04/04 00:13:27;;;;;;;15.77;11.13;;;2.60;99.90;;;;;;2607592;54;20413;-77
2022/04/04 00:15:53;;;;;;;12.40;9.73;;;2.60;99.90;;;;;;2605897;47;20410;-79
2022/04/04 00:18:19;;;;;;;13.63;11.10;;;2.60;99.90;;;;;;2606634;54;20450;-78
2022/04/04 00:20:45;;;;;;;10.33;9.33;;;2.80;99.90;;;;;;2608006;54;20963;-79
2022/04/04 00:23:14;;;;;;;12.20;10.90;;;2.80;99.90;;;;;;2606750;54;20394;-77
2022/04/04 00:25:45;;;;;;;10.17;9.00;;;2.70;99.90;;;;;;2609360;54;20162;-77
2022/04/04 00:28:12;;;;;;;12.10;10.17;;;2.60;99.90;;;;;;2608866;47;20418;-78
2022/04/04 00:30:38;;;;;;;12.27;10.97;;;2.60;99.90;;;;;;2607561;54;21030;-78
2022/04/04 00:33:05;;;;;;;18.77;11.60;;;2.50;99.90;;;;;;2608198;39;21125;-78
2022/04/04 00:35:32;;;;;;;13.77;10.50;;;2.50;99.90;;;;;;2608498;54;20426;-77
2022/04/04 00:37:59;;;;;;;11.40;9.70;;;2.30;99.90;;;;;;2608655;47;20419;-76
2022/04/04 00:40:25;;;;;;;11.87;10.20;;;2.30;99.90;;;;;;2608696;54;20476;-76
2022/04/04 00:42:53;;;;;;;11.80;10.30;;;2.40;99.90;;;;;;2611467;54;20426;-78
2022/04/04 00:45:19;;;;;;;14.00;10.93;;;2.30;99.90;;;;;;2610225;54;20397;-76
2022/04/04 00:47:45;;;;;;;15.10;11.47;;;2.40;99.90;;;;;;2606593;47;20419;-78
2022/04/04 00:50:12;;;;;;;13.20;10.57;;;2.30;99.90;;;;;;2606627;47;20405;-78
2022/04/04 00:52:38;;;;;;;16.10;13.07;;;2.30;99.90;;;;;;2609465;54;20414;-78
2022/04/04 00:55:08;;;;;;;14.17;11.60;;;2.40;99.90;;;;;;2608663;54;20450;-78
2022/04/04 00:57:36;;;;;;;16.90;11.70;;;2.40;99.90;;;;;;2608301;54;20423;-78
2022/04/04 01:00:04;;;;;;;15.03;12.20;;;2.30;99.90;;;;;;2606685;54;20386;-78
2022/04/04 01:02:30;;;;;;;13.63;11.83;;;2.30;99.90;;;;;;2611005;54;20386;-77
2022/04/04 01:04:57;;;;;;;16.23;11.90;;;2.20;99.90;;;;;;2608768;54;20989;-77
2022/04/04 01:07:22;;;;;;;13.73;10.30;;;2.30;99.90;;;;;;2604885;54;20383;-78
2022/04/04 01:09:49;;;;;;;13.33;11.60;;;2.40;99.90;;;;;;2608366;47;20162;-77
2022/04/04 01:12:15;;;;;;;21.33;14.23;;;2.30;99.90;;;;;;2606497;54;20153;-76
2022/04/04 01:14:46;;;;;;;14.23;11.13;;;2.30;99.90;;;;;;2606855;54;21145;-77
2022/04/04 01:17:13;;;;;;;13.50;11.87;;;2.30;99.90;;;;;;2607168;54;22155;-77
2022/04/04 01:19:39;;;;;;;17.83;12.53;;;2.50;99.90;;;;;;2609395;47;20424;-78
2022/04/04 01:22:08;;;;;;;10.73;9.60;;;2.50;99.90;;;;;;2608185;47;20437;-78
2022/04/04 01:24:37;;;;;;;16.43;10.83;;;2.50;99.90;;;;;;2608604;54;20410;-78
2022/04/04 01:27:04;;;;;;;15.50;12.20;;;2.60;99.90;;;;;;2608214;39;20774;-77
2022/04/04 01:29:30;;;;;;;15.07;10.10;;;2.60;99.90;;;;;;2607759;39;20531;-76
2022/04/04 01:31:56;;;;;;;10.87;9.33;;;2.60;99.90;;;;;;2607355;54;21390;-77
2022/04/04 01:34:22;;;;;;;13.77;10.20;;;2.80;99.90;;;;;;2609885;39;20804;-77
2022/04/04 01:36:49;;;;;;;13.30;9.80;;;2.80;99.90;;;;;;2610987;54;21315;-78
2022/04/04 01:39:15;;;;;;;12.87;10.40;;;2.90;99.90;;;;;;2608419;47;20415;-77
2022/04/04 01:41:42;;;;;;;10.70;8.83;;;2.80;99.90;;;;;;2608467;39;21040;-78
2022/04/04 01:44:08;;;;;;;9.80;8.43;;;2.80;99.90;;;;;;2608237;54;20419;-77
2022/04/04 01:46:34;;;;;;;10.97;9.83;;;2.80;99.90;;;;;;2606964;39;20994;-78
2022/04/04 01:49:02;;;;;;;12.07;9.60;;;2.80;99.90;;;;;;2608323;47;20478;-77
2022/04/04 01:51:29;;;;;;;13.90;10.27;;;2.80;99.90;;;;;;2608491;54;20423;-76
2022/04/04 01:53:56;;;;;;;17.47;11.90;;;2.70;99.90;;;;;;2611549;39;20704;-76
2022/04/04 01:56:22;;;;;;;11.50;10.30;;;2.60;99.90;;;;;;2611812;47;20507;-77
2022/04/04 01:58:48;;;;;;;11.20;9.97;;;2.70;99.90;;;;;;2609008;54;20387;-78
2022/04/04 02:01:16;;;;;;;13.77;10.67;;;2.70;99.90;;;;;;2609066;54;21085;-78
2022/04/04 02:03:46;;;;;;;12.80;10.57;;;2.60;99.90;;;;;;2609215;47;20435;-78
2022/04/04 02:06:13;;;;;;;16.83;11.00;;;2.50;99.90;;;;;;2608833;54;20455;-78
2022/04/04 02:08:42;;;;;;;13.17;10.40;;;2.50;99.90;;;;;;2607292;47;20522;-78
2022/04/04 02:11:09;;;;;;;10.47;8.63;;;2.40;99.90;;;;;;2607448;54;20419;-78
2022/04/04 02:13:35;;;;;;;16.27;9.90;;;2.40;99.90;;;;;;2610345;39;20780;-78
2022/04/04 02:16:02;;;;;;;8.90;8.07;;;2.50;99.90;;;;;;2611631;46;20937;-77
2022/04/04 02:18:29;;;;;;;10.10;6.40;;;2.50;99.90;;;;;;2608938;47;21012;-78
2022/04/04 02:20:55;;;;;;;10.77;8.67;;;2.40;99.90;;;;;;2607974;39;20794;-76
2022/04/04 02:23:22;;;;;;;13.20;9.20;;;2.50;99.90;;;;;;2607048;54;20510;-77
2022/04/04 02:25:50;;;;;;;9.53;8.57;;;2.50;99.90;;;;;;2608849;54;20419;-76
2022/04/04 02:28:17;;;;;;;11.67;8.37;;;2.50;99.90;;;;;;2608085;54;20423;-77
2022/04/04 02:30:44;;;;;;;11.03;8.00;;;2.60;99.90;;;;;;2609001;47;20535;-77
2022/04/04 02:33:16;;;;;;;11.67;9.33;;;2.70;99.90;;;;;;2609970;54;20961;-78
2022/04/04 02:35:42;;;;;;;11.67;8.67;;;2.70;99.90;;;;;;2607334;54;20429;-77
2022/04/04 02:38:09;;;;;;;13.77;9.37;;;2.80;99.90;;;;;;2609230;54;20507;-76
2022/04/04 02:40:37;;;;;;;13.47;9.70;;;2.90;99.90;;;;;;2609482;54;20404;-77
2022/04/04 02:43:03;;;;;;;14.00;8.03;;;3.00;99.90;;;;;;2609196;47;20414;-76
2022/04/04 02:45:29;;;;;;;10.97;9.13;;;3.10;99.90;;;;;;2608853;54;20487;-78
2022/04/04 02:47:56;;;;;;;11.30;9.97;;;3.10;99.90;;;;;;2608960;54;20410;-76
2022/04/04 02:50:22;;;;;;;13.50;9.67;;;3.10;99.90;;;;;;2610079;39;20901;-76
2022/04/04 02:52:48;;;;;;;12.43;10.30;;;3.20;99.90;;;;;;2610310;54;20411;-77
2022/04/04 02:57:58;;;;;;;12.27;9.00;;;3.20;99.90;;;;;;2608519;54;20400;-78
2022/04/04 03:00:24;;;;;;;11.83;9.30;;;3.30;99.90;;;;;;2608544;54;20542;-76
2022/04/04 03:02:54;;;;;;;16.20;9.40;;;3.20;99.90;;;;;;2607316;54;20155;-76
2022/04/04 03:05:20;;;;;;;10.60;9.53;;;3.40;99.90;;;;;;2607708;54;20391;-77
2022/04/04 03:07:46;;;;;;;12.27;10.60;;;3.40;99.90;;;;;;2609500;54;20589;-77
2022/04/04 03:10:13;;;;;;;12.40;10.20;;;3.40;99.90;;;;;;2610352;54;20430;-78
2022/04/04 03:12:48;;;;;;;9.43;7.33;;;3.40;99.90;;;;;;2606846;54;20171;-76
2022/04/04 03:15:16;;;;;;;8.80;7.20;;;3.50;99.90;;;;;;2606516;47;20425;-78
2022/04/04 03:17:44;;;;;;;13.73;8.80;;;3.50;99.90;;;;;;2606287;54;20422;-77
2022/04/04 03:20:12;;;;;;;9.40;7.40;;;3.50;99.90;;;;;;2608514;39;22022;-78
2022/04/04 03:22:40;;;;;;;12.20;9.03;;;3.50;99.90;;;;;;2607777;54;20412;-77
2022/04/04 03:25:08;;;;;;;11.27;9.00;;;3.50;99.90;;;;;;2610095;54;20407;-78
2022/04/04 03:27:36;;;;;;;10.37;8.40;;;3.50;99.90;;;;;;2610003;54;20403;-76
2022/04/04 03:30:07;;;;;;;9.50;7.50;;;3.50;99.90;;;;;;2608858;46;20881;-77
2022/04/04 03:32:33;;;;;;;13.13;8.87;;;3.60;99.90;;;;;;2607778;54;20434;-77
2022/04/04 03:34:59;;;;;;;10.17;8.40;;;3.70;99.90;;;;;;2608162;54;20411;-77
2022/04/04 03:37:25;;;;;;;8.70;7.90;;;3.60;99.90;;;;;;2609902;39;21094;-77
2022/04/04 03:39:52;;;;;;;16.23;9.17;;;3.60;99.90;;;;;;2606776;54;20402;-77
2022/04/04 03:42:19;;;;;;;10.77;7.30;;;3.60;99.90;;;;;;2609563;54;20663;-79
2022/04/04 03:44:45;;;;;;;9.83;8.23;;;3.60;99.90;;;;;;2611420;54;20462;-78
2022/04/04 03:47:12;;;;;;;8.17;7.30;;;3.60;99.90;;;;;;2607589;54;20462;-78
2022/04/04 03:49:38;;;;;;;10.43;7.00;;;3.60;99.90;;;;;;2607013;54;20955;-77
2022/04/04 03:52:07;;;;;;;11.30;8.30;;;3.50;99.90;;;;;;2606263;54;20435;-77
2022/04/04 03:54:34;;;;;;;12.23;7.87;;;3.50;99.90;;;;;;2607926;54;20418;-77
2022/04/04 03:57:01;;;;;;;8.67;7.73;;;3.50;99.90;;;;;;2609824;54;20876;-77
2022/04/04 03:59:27;;;;;;;13.60;8.00;;;3.50;99.90;;;;;;2607826;54;20990;-77
2022/04/04 04:01:52;;;;;;;8.57;7.70;;;3.50;99.90;;;;;;2608870;47;20424;-77
2022/04/04 04:04:18;;;;;;;8.57;7.60;;;3.50;99.90;;;;;;2609791;39;20564;-77
2022/04/04 04:06:45;;;;;;;11.17;7.60;;;3.50;99.90;;;;;;2607696;54;20170;-77
2022/04/04 04:09:12;;;;;;;10.07;8.87;;;3.50;99.90;;;;;;2609169;54;20495;-77
2022/04/04 04:11:38;;;;;;;8.47;7.60;;;3.60;99.90;;;;;;2605889;54;20404;-77
2022/04/04 04:14:04;;;;;;;9.67;8.07;;;3.50;99.90;;;;;;2606446;54;20402;-77
2022/04/04 04:16:31;;;;;;;14.47;9.00;;;3.50;99.90;;;;;;2607282;48;21046;-77
2022/04/04 04:18:56;;;;;;;12.30;7.93;;;3.60;99.90;;;;;;2608733;47;20403;-78
2022/04/04 04:21:23;;;;;;;9.50;6.83;;;3.50;99.90;;;;;;2608180;39;21009;-77
2022/04/04 04:23:50;;;;;;;11.87;9.27;;;3.60;99.90;;;;;;2607963;46;20174;-77
2022/04/04 04:26:17;;;;;;;13.50;9.57;;;3.50;99.90;;;;;;2609362;54;20423;-77
2022/04/04 04:28:45;;;;;;;11.33;9.33;;;3.50;99.90;;;;;;2609152;54;20414;-77
2022/04/04 04:31:11;;;;;;;13.20;8.13;;;3.50;99.90;;;;;;2609178;54;20406;-76
2022/04/04 04:33:37;;;;;;;11.53;8.70;;;3.50;99.90;;;;;;2608960;46;20444;-77
2022/04/04 04:36:03;;;;;;;11.23;9.23;;;3.60;99.90;;;;;;2608790;54;20440;-77
2022/04/04 04:38:30;;;;;;;10.03;9.13;;;3.60;99.90;;;;;;2610798;47;20399;-78
2022/04/04 04:40:57;;;;;;;11.57;7.70;;;3.50;99.90;;;;;;2610561;54;20388;-77
2022/04/04 04:43:23;;;;;;;10.03;9.00;;;3.60;99.90;;;;;;2608024;39;20875;-77
2022/04/04 04:45:50;;;;;;;14.17;9.53;;;3.60;99.90;;;;;;2608598;54;20454;-78
2022/04/04 04:48:15;;;;;;;16.90;10.57;;;3.50;99.90;;;;;;2607115;54;20964;-78
2022/04/04 04:50:41;;;;;;;8.30;7.47;;;3.50;99.90;;;;;;2608534;54;20395;-78
2022/04/04 04:53:07;;;;;;;9.93;8.90;;;3.50;99.90;;;;;;2607690;54;20663;-77
2022/04/04 04:55:33;;;;;;;13.23;9.33;;;3.50;99.90;;;;;;2611267;54;20430;-77
2022/04/04 04:57:59;;;;;;;14.47;10.90;;;3.40;99.90;;;;;;2608672;54;20781;-78
2022/04/04 05:00:28;;;;;;;10.77;9.53;;;3.40;99.90;;;;;;2607324;54;20415;-76
2022/04/04 05:05:41;;;;;;;12.63;9.40;;;3.40;99.90;;;;;;2607635;54;20438;-76
2022/04/04 05:08:07;;;;;;;18.93;11.53;;;3.40;99.90;;;;;;2609384;46;20379;-77
2022/04/04 05:10:33;;;;;;;13.87;11.47;;;3.40;99.90;;;;;;2607334;47;20407;-77
2022/04/04 05:12:59;;;;;;;17.33;12.80;;;3.30;99.90;;;;;;2608195;54;20371;-78
2022/04/04 05:15:25;;;;;;;12.63;11.27;;;3.30;99.90;;;;;;2609405;47;21493;-77
2022/04/04 05:17:52;;;;;;;12.10;10.90;;;3.40;99.90;;;;;;2608026;31;20628;-77
2022/04/04 05:20:21;;;;;;;14.00;9.63;;;3.40;99.90;;;;;;2607418;47;20398;-80
2022/04/04 05:22:47;;;;;;;19.50;12.07;;;3.40;99.90;;;;;;2609098;47;20419;-78
2022/04/04 05:25:14;;;;;;;12.80;9.90;;;3.40;99.90;;;;;;2608934;54;20423;-77
2022/04/04 05:27:40;;;;;;;13.93;11.10;;;3.50;99.90;;;;;;2609797;39;20916;-76
2022/04/04 05:30:08;;;;;;;13.77;9.37;;;3.50;99.90;;;;;;2609232;54;20504;-76
2022/04/04 05:32:34;;;;;;;14.90;10.10;;;3.50;99.90;;;;;;2608118;54;20435;-76
2022/04/04 05:35:06;;;;;;;10.70;9.60;;;3.60;99.90;;;;;;2608831;47;20419;-76
2022/04/04 05:37:32;;;;;;;13.10;9.73;;;3.70;99.90;;;;;;2609289;54;20956;-75
2022/04/04 05:39:58;;;;;;;13.37;9.47;;;3.70;99.90;;;;;;2609495;54;20406;-76
2022/04/04 05:42:24;;;;;;;11.27;8.97;;;3.80;99.90;;;;;;2611765;54;20570;-76
2022/04/04 05:44:50;;;;;;;15.20;11.27;;;3.80;99.90;;;;;;2602875;54;21003;-76
2022/04/04 05:47:20;;;;;;;13.37;8.50;;;3.90;99.90;;;;;;2606190;47;20435;-76
2022/04/04 05:49:46;;;;;;;13.33;10.43;;;4.00;99.90;;;;;;2608947;54;20246;-77
2022/04/04 05:52:12;;;;;;;15.30;10.63;;;4.00;99.90;;;;;;2608881;54;20937;-76
2022/04/04 05:54:53;;;;;;;17.60;10.07;;;4.10;99.90;;;;;;2606216;54;20431;-76
2022/04/04 05:57:27;;;;;;;16.40;10.30;;;4.10;99.90;;;;;;2610592;54;20151;-76
2022/04/04 05:59:54;;;;;;;14.93;9.40;;;4.10;99.90;;;;;;2607267;46;20845;-75
2022/04/04 06:02:20;;;;;;;10.40;7.80;;;4.20;99.90;;;;;;2608297;54;20479;-76
2022/04/04 06:04:46;;;;;;;14.67;9.67;;;4.20;99.90;;;;;;2608076;54;20975;-76
2022/04/04 06:07:12;;;;;;;14.23;8.87;;;4.40;99.90;;;;;;2609774;50;20426;-76
2022/04/04 06:09:38;;;;;;;11.90;9.17;;;4.50;99.90;;;;;;2608799;54;20422;-75
2022/04/04 06:12:04;;;;;;;13.77;9.73;;;4.50;99.90;;;;;;2605544;54;20444;-76
2022/04/04 06:14:30;;;;;;;13.97;8.33;;;4.50;99.90;;;;;;2608563;54;20155;-77
2022/04/04 06:16:55;;;;;;;13.40;9.00;;;4.50;99.90;;;;;;2607637;54;20537;-74
2022/04/04 06:19:21;;;;;;;9.33;7.67;;;4.60;99.90;;;;;;2608515;54;20155;-75
2022/04/04 06:21:47;;;;;;;14.83;9.90;;;4.60;99.90;;;;;;2606712;54;20179;-76
2022/04/04 06:24:13;;;;;;;13.43;10.30;;;4.80;99.90;;;;;;2608151;54;20402;-76
2022/04/04 06:26:39;;;;;;;8.07;6.77;;;4.80;99.60;;;;;;2609910;39;20907;-77
2022/04/04 06:29:09;;;;;;;8.13;7.10;;;4.90;99.70;;;;;;2606962;54;20155;-76
2022/04/04 06:31:36;;;;;;;12.50;10.07;;;4.90;99.60;;;;;;2607764;54;20435;-76
2022/04/04 06:34:07;;;;;;;10.00;9.00;;;4.90;99.90;;;;;;2605920;54;20427;-77
2022/04/04 06:36:34;;;;;;;9.87;6.73;;;5.00;99.90;;;;;;2607775;54;20443;-76
2022/04/04 06:38:59;;;;;;;11.37;7.17;;;4.90;99.90;;;;;;2607332;31;20911;-77
2022/04/04 06:41:25;;;;;;;10.57;9.07;;;5.00;99.90;;;;;;2606872;54;20391;-76
2022/04/04 06:43:51;;;;;;;12.33;8.63;;;5.00;99.90;;;;;;2611582;54;20492;-76
2022/04/04 06:46:18;;;;;;;12.83;7.83;;;5.10;99.60;;;;;;2608908;54;20154;-77
2022/04/04 06:48:45;;;;;;;15.53;8.80;;;5.20;97.70;;;;;;2607367;54;20410;-75
2022/04/04 06:51:11;;;;;;;10.00;8.40;;;5.30;96.50;;;;;;2607780;54;20956;-76
2022/04/04 06:53:38;;;;;;;10.70;7.93;;;5.40;95.50;;;;;;2607764;54;20400;-76
2022/04/04 06:56:04;;;;;;;11.70;10.50;;;5.70;93.60;;;;;;2606280;54;20441;-76
2022/04/04 06:58:30;;;;;;;10.97;8.10;;;5.70;93.10;;;;;;2606284;47;20427;-74
2022/04/04 07:00:57;;;;;;;10.87;8.10;;;5.90;92.20;;;;;;2611793;39;20961;-76
2022/04/04 07:03:23;;;;;;;10.67;8.30;;;6.00;91.80;;;;;;2611810;39;20526;-75
2022/04/04 07:05:50;;;;;;;11.23;8.47;;;5.90;92.00;;;;;;2608841;54;20421;-76
2022/04/04 07:08:16;;;;;;;9.93;8.20;;;5.80;92.70;;;;;;2608427;47;20479;-77
2022/04/04 07:10:42;;;;;;;11.00;9.10;;;5.70;93.40;;;;;;2606697;54;20408;-76
2022/04/04 07:13:08;;;;;;;13.37;9.80;;;5.70;94.10;;;;;;2608939;54;20959;-75
2022/04/04 07:15:35;;;;;;;9.90;8.80;;;5.80;94.80;;;;;;2609966;54;20410;-77
2022/04/04 07:18:01;;;;;;;9.37;7.63;;;5.90;94.20;;;;;;2611526;47;20258;-77
2022/04/04 07:20:27;;;;;;;9.13;8.00;;;5.90;93.70;;;;;;2610952;47;20426;-77
2022/04/04 07:22:53;;;;;;;9.50;8.50;;;5.90;94.70;;;;;;2609996;54;20452;-76
2022/04/04 07:25:21;;;;;;;9.13;7.70;;;5.90;95.70;;;;;;2611168;54;20366;-76
2022/04/04 07:27:48;;;;;;;13.20;9.97;;;5.90;95.00;;;;;;2609223;54;20250;-76
2022/04/04 07:30:17;;;;;;;13.97;8.63;;;5.90;95.80;;;;;;2608870;39;20786;-76
2022/04/04 07:32:43;;;;;;;9.33;7.33;;;6.00;95.20;;;;;;2609511;47;20426;-78
2022/04/04 07:35:11;;;;;;;10.97;9.60;;;6.10;92.80;;;;;;2608991;54;20390;-77
2022/04/04 07:37:38;;;;;;;9.70;8.80;;;6.10;92.50;;;;;;2611118;54;20418;-77
2022/04/04 07:40:06;;;;;;;10.17;8.67;;;6.20;92.80;;;;;;2611082;54;20410;-76
2022/04/04 07:42:32;;;;;;;9.17;8.30;;;6.20;92.60;;;;;;2611690;54;20514;-75
2022/04/04 07:44:58;;;;;;;12.33;9.00;;;6.20;92.30;;;;;;2612098;54;20434;-76
2022/04/04 07:47:24;;;;;;;11.90;8.87;;;6.40;92.00;;;;;;2610081;54;21146;-75
2022/04/04 07:49:50;;;;;;;11.30;9.47;;;6.60;89.90;;;;;;2609901;54;20154;-75
2022/04/04 07:52:16;;;;;;;9.43;8.17;;;6.70;89.50;;;;;;2608965;54;20178;-76
2022/04/04 07:54:42;;;;;;;11.07;8.40;;;6.90;86.30;;;;;;2609606;54;20566;-76
2022/04/04 07:57:08;;;;;;;10.47;8.20;;;6.90;84.50;;;;;;2610323;47;20436;-76
2022/04/04 07:59:34;;;;;;;9.30;8.00;;;7.00;83.50;;;;;;2608543;54;20429;-75
2022/04/04 08:02:00;;;;;;;12.13;8.10;;;7.00;80.40;;;;;;2608483;39;20776;-75
2022/04/04 08:04:25;;;;;;;7.73;7.03;;;6.80;81.40;;;;;;2608423;46;20176;-76
2022/04/04 08:06:52;;;;;;;8.00;7.20;;;6.80;83.20;;;;;;2609012;54;20151;-75
2022/04/04 08:09:18;;;;;;;10.20;9.10;;;6.80;83.20;;;;;;2609790;39;20957;-76
2022/04/04 08:11:44;;;;;;;8.87;7.13;;;6.90;83.80;;;;;;2608576;54;21936;-77
2022/04/04 08:14:09;;;;;;;11.03;7.83;;;7.10;83.50;;;;;;2609303;54;20186;-75
2022/04/04 08:16:36;;;;;;;9.80;8.80;;;7.10;81.80;;;;;;2609354;31;20656;-76
2022/04/04 08:19:02;;;;;;;9.50;7.47;;;7.20;80.00;;;;;;2606821;54;20152;-75
2022/04/04 08:21:31;;;;;;;8.20;7.40;;;7.30;76.90;;;;;;2607110;54;20406;-77
2022/04/04 08:23:58;;;;;;;9.80;8.80;;;7.30;73.60;;;;;;2610104;47;21147;-78
2022/04/04 08:26:24;;;;;;;11.13;9.43;;;7.30;74.30;;;;;;2608715;39;20919;-75
2022/04/04 08:28:50;;;;;;;12.07;9.00;;;7.30;69.40;;;;;;2609545;54;20151;-76
2022/04/04 08:31:16;;;;;;;8.70;7.80;;;7.40;71.00;;;;;;2605064;54;21876;-77
2022/04/04 08:33:43;;;;;;;10.73;9.70;;;7.50;69.80;;;;;;2608236;54;20607;-76
2022/04/04 08:36:08;;;;;;;7.93;7.00;;;7.50;68.40;;;;;;2610474;54;20590;-75
2022/04/04 08:38:37;;;;;;;10.20;7.93;;;7.50;66.10;;;;;;2608910;39;20563;-77
2022/04/04 08:41:05;;;;;;;15.33;7.80;;;7.40;67.90;;;;;;2607542;46;20159;-76
2022/04/04 08:43:36;;;;;;;12.50;9.77;;;7.40;67.00;;;;;;2607784;54;20434;-76
2022/04/04 08:46:06;;;;;;;10.60;7.77;;;7.50;67.30;;;;;;2607522;47;20429;-76
2022/04/04 08:48:37;;;;;;;8.63;7.17;;;7.30;67.60;;;;;;2610227;47;20552;-76
2022/04/04 08:51:04;;;;;;;12.20;9.37;;;7.20;69.30;;;;;;2609208;54;20408;-76
2022/04/04 08:53:30;;;;;;;9.60;8.70;;;7.10;73.70;;;;;;2605499;54;20403;-77
2022/04/04 08:55:59;;;;;;;10.63;7.00;;;7.10;72.50;;;;;;2604719;54;20455;-76
2022/04/04 08:58:25;;;;;;;8.50;7.50;;;7.10;72.40;;;;;;2606277;54;20426;-75
2022/04/04 09:00:51;;;;;;;8.33;7.50;;;7.10;74.60;;;;;;2608006;54;20951;-75
2022/04/04 09:03:22;;;;;;;8.07;7.33;;;7.10;76.40;;;;;;2606167;54;20411;-76
2022/04/04 09:05:53;;;;;;;8.53;7.73;;;6.90;77.90;;;;;;2608348;54;20522;-75
2022/04/04 09:08:20;;;;;;;11.80;9.27;;;7.10;76.80;;;;;;2612210;54;20522;-75
2022/04/04 09:10:47;;;;;;;10.73;9.37;;;7.20;81.10;;;;;;2608538;54;20507;-75
2022/04/04 09:13:15;;;;;;;10.93;8.77;;;7.10;80.60;;;;;;2609068;39;20973;-77
2022/04/04 09:16:02;;;;;;;12.67;8.00;;;6.90;82.80;;;;;;2606225;54;20964;-75
2022/04/04 09:18:49;;;;;;;10.43;7.10;;;6.70;87.40;;;;;;2606390;54;20395;-76
2022/04/04 09:21:18;;;;;;;10.00;6.87;;;6.70;90.00;;;;;;2606890;54;20514;-75
2022/04/04 09:23:48;;;;;;;9.13;8.20;;;6.60;93.20;;;;;;2610023;46;20459;-75
2022/04/04 09:26:34;;;;;;;11.80;7.80;;;6.60;93.70;;;;;;2610213;39;21090;-75
2022/04/04 09:29:05;;;;;;;11.00;8.63;;;6.50;93.20;;;;;;2608247;54;20447;-75
2022/04/04 09:31:31;;;;;;;8.63;7.70;;;6.60;95.30;;;;;;2608440;54;20392;-75
2022/04/04 09:34:02;;;;;;;9.13;6.83;;;6.60;94.80;;;;;;2607992;54;20552;-75
2022/04/04 09:36:29;;;;;;;11.63;8.70;;;6.60;96.00;;;;;;2606667;54;20404;-76
2022/04/04 09:39:08;;;;;;;11.83;9.27;;;6.50;98.20;;;;;;2607956;54;20455;-74
2022/04/04 09:41:34;;;;;;;12.10;8.63;;;6.50;96.30;;;;;;2609434;54;20383;-75
2022/04/04 09:44:03;;;;;;;15.67;10.43;;;6.50;98.20;;;;;;2611110;54;20400;-75
2022/04/04 09:46:34;;;;;;;10.97;9.80;;;6.60;99.90;;;;;;2609341;54;21550;-76
2022/04/04 09:49:15;;;;;;;11.30;9.80;;;6.60;99.90;;;;;;2607729;46;20455;-75
2022/04/04 09:51:51;;;;;;;10.67;9.57;;;6.70;98.20;;;;;;2607592;47;20417;-75
2022/04/04 09:54:19;;;;;;;8.57;6.97;;;6.70;95.50;;;;;;2609172;54;20383;-76
2022/04/04 09:56:47;;;;;;;17.60;9.10;;;6.70;93.30;;;;;;2607719;39;20986;-75
2022/04/04 09:59:15;;;;;;;8.13;7.33;;;6.70;94.60;;;;;;2607281;54;20510;-75
2022/04/04 10:01:42;;;;;;;13.40;9.70;;;6.80;94.50;;;;;;2627991;36;20438;-75
2022/04/04 10:04:09;;;;;;;10.33;9.23;;;6.90;95.40;;;;;;2609810;54;20590;-76
2022/04/04 10:06:36;;;;;;;8.77;7.97;;;7.00;93.30;;;;;;2609087;47;20418;-76
2022/04/04 10:09:03;;;;;;;9.07;7.70;;;6.90;94.30;;;;;;2608572;47;20437;-76
2022/04/04 10:11:34;;;;;;;13.20;8.90;;;6.80;98.30;;;;;;2609378;47;20431;-74
2022/04/04 10:14:01;;;;;;;11.67;8.90;;;6.80;99.90;;;;;;2610511;54;20559;-75
2022/04/04 10:16:28;;;;;;;9.73;7.90;;;6.80;99.90;;;;;;2606987;46;20411;-76
2022/04/04 10:18:55;;;;;;;14.67;11.90;;;6.80;99.90;;;;;;2607196;47;20430;-74
2022/04/04 10:21:21;;;;;;;13.70;12.43;;;6.80;99.90;;;;;;2609763;54;20447;-74
2022/04/04 10:23:50;;;;;;;13.70;10.50;;;6.70;99.90;;;;;;2609860;54;20427;-74
2022/04/04 10:26:20;;;;;;;17.60;10.90;;;6.70;99.90;;;;;;2606192;54;20398;-76
2022/04/04 10:28:48;;;;;;;12.27;11.13;;;6.60;99.90;;;;;;2605143;47;20863;-75
2022/04/04 10:31:20;;;;;;;13.60;12.37;;;6.50;99.90;;;;;;2607470;54;20416;-75
2022/04/04 10:33:48;;;;;;;14.67;13.33;;;6.40;99.90;;;;;;2609588;54;21082;-74
2022/04/04 10:36:21;;;;;;;13.90;12.80;;;6.40;99.90;;;;;;2606388;54;20410;-74
2022/04/04 10:38:50;;;;;;;15.43;14.13;;;6.30;99.90;;;;;;2609403;39;20830;-76
2022/04/04 10:41:21;;;;;;;17.30;16.00;;;6.20;99.90;;;;;;2609755;54;20432;-74
2022/04/04 10:43:52;;;;;;;17.13;15.23;;;6.10;99.90;;;;;;2611753;54;21006;-75
2022/04/04 10:46:23;;;;;;;16.13;14.63;;;6.00;99.90;;;;;;2609320;54;20454;-75
2022/04/04 10:48:54;;;;;;;15.80;14.23;;;5.90;99.90;;;;;;2610361;54;20407;-76
2022/04/04 10:51:28;;;;;;;18.70;16.97;;;5.90;99.90;;;;;;2610094;39;20882;-76
2022/04/04 10:54:00;;;;;;;13.33;12.03;;;5.90;99.90;;;;;;2609803;47;20764;-76
2022/04/04 10:56:41;;;;;;;13.20;12.10;;;5.90;99.90;;;;;;2608226;54;20431;-73
2022/04/04 10:59:15;;;;;;;17.10;15.50;;;5.80;99.90;;;;;;2611142;39;20942;-75
2022/04/04 11:01:52;;;;;;;17.23;14.70;;;5.70;99.90;;;;;;2609634;54;20482;-75
2022/04/04 11:04:36;;;;;;;14.33;12.83;;;5.60;99.90;;;;;;2611778;47;20413;-76
2022/04/04 11:10:05;;;;;;;11.77;10.60;;;5.50;99.90;;;;;;2607800;54;20440;-75
2022/04/04 11:13:07;;;;;;;18.23;13.33;;;5.50;99.90;;;;;;2607407;39;21106;-75
2022/04/04 11:15:53;;;;;;;18.80;11.60;;;5.40;99.90;;;;;;2610009;54;20391;-76
2022/04/04 11:18:20;;;;;;;12.00;10.80;;;5.30;99.90;;;;;;2609018;54;20399;-76
2022/04/04 11:20:59;;;;;;;18.10;12.33;;;5.30;99.90;;;;;;2611137;39;20723;-76
2022/04/04 11:23:34;;;;;;;14.20;10.27;;;5.30;99.90;;;;;;2608154;54;20429;-77
2022/04/04 11:26:01;;;;;;;19.53;15.90;;;5.30;99.90;;;;;;2608250;47;20423;-76
2022/04/04 11:28:31;;;;;;;15.13;10.80;;;5.30;99.90;;;;;;2607164;39;20797;-76
2022/04/04 11:31:08;;;;;;;13.47;11.90;;;5.30;99.90;;;;;;2605440;47;20427;-78
2022/04/04 11:33:51;;;;;;;23.07;13.53;;;5.30;99.90;;;;;;2607700;54;20977;-77
2022/04/04 11:36:22;;;;;;;17.10;14.17;;;5.30;99.90;;;;;;2609809;54;20411;-76
2022/04/04 11:38:51;;;;;;;18.50;13.97;;;5.30;99.90;;;;;;2609393;54;20472;-77
2022/04/04 11:41:19;;;;;;;14.20;11.47;;;5.30;99.90;;;;;;2610876;54;20490;-76
2022/04/04 11:43:50;;;;;;;20.13;13.60;;;5.20;99.90;;;;;;2610508;54;20395;-75
2022/04/04 11:46:19;;;;;;;11.80;10.53;;;5.20;99.90;;;;;;2610318;54;20422;-76
2022/04/04 11:48:57;;;;;;;15.10;13.60;;;5.20;99.90;;;;;;2607522;54;20437;-75
2022/04/04 11:51:45;;;;;;;9.53;8.70;;;5.20;99.90;;;;;;2609240;54;20407;-75
2022/04/04 11:54:11;;;;;;;16.40;11.70;;;5.20;99.90;;;;;;2603959;54;20420;-76
2022/04/04 11:56:41;;;;;;;20.93;14.70;;;5.30;99.90;;;;;;2601969;54;20983;-75
2022/04/04 11:59:09;;;;;;;11.07;9.90;;;5.30;99.90;;;;;;2602564;39;20846;-75
2022/04/04 12:01:35;;;;;;;18.50;11.77;;;5.30;99.90;;;;;;2604766;47;20395;-75
2022/04/04 12:04:03;;;;;;;13.57;11.27;;;5.20;99.90;;;;;;2600898;54;20535;-75
2022/04/04 12:06:30;;;;;;;15.33;13.77;;;5.20;99.90;;;;;;2609730;54;21032;-75
2022/04/04 12:09:00;;;;;;;18.90;10.73;;;5.20;99.90;;;;;;2607560;39;20894;-75
2022/04/04 12:11:29;;;;;;;13.53;12.00;;;5.20;99.90;;;;;;2600775;54;20426;-75
2022/04/04 12:13:59;;;;;;;14.90;11.30;;;5.20;99.90;;;;;;2601577;39;20895;-75
2022/04/04 12:16:26;;;;;;;12.53;11.23;;;5.10;99.90;;;;;;2604466;54;20424;-75
2022/04/04 12:19:00;;;;;;;10.60;9.23;;;5.20;99.90;;;;;;2601030;54;20422;-75
2022/04/04 12:21:26;;;;;;;15.30;13.70;;;5.20;99.90;;;;;;2600900;39;20810;-74
2022/04/04 12:26:38;;;;;;;12.07;9.63;;;5.10;99.90;;;;;;2609129;54;20399;-74
2022/04/04 12:29:12;;;;;;;11.20;10.10;;;5.00;99.90;;;;;;2604938;54;20560;-74
2022/04/04 12:31:38;;;;;;;14.97;13.10;;;5.00;99.90;;;;;;2605212;54;20411;-74
2022/04/04 12:34:10;;;;;;;13.47;11.20;;;5.10;99.90;;;;;;2604831;54;20717;-74
2022/04/04 12:36:38;;;;;;;15.70;10.80;;;5.10;99.90;;;;;;2602021;54;20423;-74
2022/04/04 12:39:06;;;;;;;14.90;10.57;;;5.10;99.90;;;;;;2601238;47;21299;-75
2022/04/04 12:41:52;;;;;;;13.57;12.17;;;5.00;99.90;;;;;;2604004;48;20414;-75
2022/04/04 12:44:26;;;;;;;18.03;14.17;;;5.10;99.90;;;;;;2610528;47;20443;-75
2022/04/04 12:47:09;;;;;;;11.87;10.67;;;5.00;99.90;;;;;;2611873;39;20772;-76
2022/04/04 12:49:35;;;;;;;14.20;12.10;;;5.00;99.90;;;;;;2607104;54;20398;-75
2022/04/04 12:52:06;;;;;;;18.50;15.00;;;4.90;99.90;;;;;;2609871;54;20412;-76
2022/04/04 12:54:40;;;;;;;13.90;12.00;;;5.00;99.90;;;;;;2603498;47;21349;-76
2022/04/04 12:57:10;;;;;;;12.60;11.33;;;5.00;99.90;;;;;;2601510;54;21037;-76
2022/04/04 12:59:51;;;;;;;17.07;14.17;;;4.90;99.90;;;;;;2605538;39;20828;-75
2022/04/04 13:02:17;;;;;;;14.67;12.40;;;5.00;99.90;;;;;;2607867;54;20487;-75